This is the latest recevied weather packets stored in our database for station/object SP4LIN-15. If no packets are shown the sender has not sent any weather packets the latest 10 day(s).
| Time | Temp. | Humidity | Pressure | Rain* | Wind** | Luminosity | Snow |
|---|---|---|---|---|---|---|---|
| 1777876747 | 20.56° C | 46% | 1002.7 hPa | 0 mm | - | - | - |
| 1777875847 | 21.11° C | 44% | 1002.5 hPa | 0 mm | - | - | - |
| 1777874947 | 20.56° C | 45% | 1002.4 hPa | 0 mm | - | - | - |
| 1777874047 | 20° C | 46% | 1002.4 hPa | 0 mm | - | - | - |
| 1777873147 | 20° C | 47% | 1002.7 hPa | 0 mm | - | - | - |
| 1777872247 | 18.33° C | 51% | 1002.7 hPa | 0 mm | - | - | - |
| 1777871347 | 16.67° C | 54% | 1002.5 hPa | 0 mm | - | - | - |
| 1777870447 | 16.11° C | 55% | 1002.6 hPa | 0 mm | - | - | - |
| 1777869547 | 15.56° C | 56% | 1002.5 hPa | 0 mm | - | - | - |
| 1777868647 | 15.56° C | 57% | 1002.5 hPa | 0 mm | - | - | - |
| 1777867747 | 15° C | 57% | 1002.5 hPa | 0 mm | - | - | - |
| 1777866847 | 14.44° C | 57% | 1002.5 hPa | 0 mm | - | - | - |
| 1777865947 | 14.44° C | 58% | 1002.7 hPa | 0 mm | - | - | - |
| 1777865047 | 13.89° C | 59% | 1002.7 hPa | 0 mm | - | - | - |
| 1777864147 | 13.33° C | 61% | 1002.6 hPa | 0 mm | - | - | - |
| 1777863247 | 12.78° C | 61% | 1002.6 hPa | 0 mm | - | - | - |
| 1777862347 | 12.78° C | 61% | 1002.6 hPa | 0 mm | - | - | - |
| 1777861447 | 12.78° C | 60% | 1002.6 hPa | 0 mm | - | - | - |
| 1777860547 | 12.78° C | 59% | 1002.7 hPa | 0 mm | - | - | - |
| 1777859647 | 12.78° C | 58% | 1002.8 hPa | 0 mm | - | - | - |
| 1777858747 | 13.33° C | 58% | 1002.8 hPa | 0 mm | - | - | - |
| 1777857847 | 12.78° C | 57% | 1003 hPa | 0 mm | - | - | - |
| 1777856947 | 13.33° C | 56% | 1003 hPa | 0 mm | - | - | - |
| 1777856047 | 13.33° C | 56% | 1003.1 hPa | 0 mm | - | - | - |
| 1777855147 | 13.33° C | 55% | 1003 hPa | 0 mm | - | - | - |
* Rain latest hour (hover to see other rain measurements)
** Current wind speed in m/s (hover to see current wind gust speed)